createdAt,value
2019-02-23T00:01:51.156Z,101192.01
2019-02-23T00:04:21.919Z,101170.35
2019-02-23T00:06:52.988Z,101199.66
2019-02-23T00:09:24.798Z,101209.86
2019-02-23T00:11:55.477Z,101191.19
2019-02-23T00:14:26.237Z,101199.65
2019-02-23T00:16:56.861Z,101187.78
2019-02-23T00:19:27.597Z,101187.78
2019-02-23T00:21:58.581Z,101240.85
2019-02-23T00:24:29.365Z,101240.85
2019-02-23T00:27:00.291Z,101225.55
2019-02-23T00:29:32.039Z,101211.97
2019-02-23T00:32:02.997Z,101222.17
2019-02-23T00:34:33.737Z,101213.67
2019-02-23T00:37:04.459Z,101251.92
2019-02-23T00:39:36.328Z,101225.56
2019-02-23T00:42:07.279Z,101256.14
2019-02-23T00:44:38.206Z,101258.73
2019-02-23T00:47:10.611Z,101258.73
2019-02-23T00:49:41.622Z,101246.42
2019-02-23T00:52:12.890Z,101203.08
2019-02-23T00:54:45.596Z,101265.11
2019-02-23T00:57:16.295Z,101287.62
2019-02-23T00:59:48.605Z,101276.15
2019-02-23T01:02:19.338Z,101255.34
2019-02-23T01:04:51.424Z,101282.09
2019-02-23T01:07:22.125Z,101298.25
2019-02-23T01:09:53.120Z,101293.10
2019-02-23T01:12:23.639Z,101295.22
2019-02-23T01:14:54.541Z,101295.22
2019-02-23T01:17:25.149Z,101318.57
2019-02-23T01:19:56.279Z,101390.80
2019-02-23T01:22:27.307Z,101335.13
2019-02-23T01:24:57.953Z,101327.49
2019-02-23T01:27:29.318Z,101310.55
2019-02-23T01:30:00.361Z,101359.37
2019-02-23T01:32:31.309Z,101356.78
2019-02-23T01:35:01.923Z,101356.78
2019-02-23T01:37:32.567Z,101347.81
2019-02-23T01:40:03.449Z,101354.59
2019-02-23T01:42:34.498Z,101365.57
2019-02-23T01:45:05.170Z,101354.97
2019-02-23T01:47:35.655Z,101357.91
2019-02-23T01:50:06.981Z,101379.95
2019-02-23T01:52:37.782Z,101375.22
2019-02-23T01:55:10.731Z,101396.41
2019-02-23T01:57:41.903Z,101402.33
2019-02-23T02:00:15.424Z,101402.33
2019-02-23T02:02:48.509Z,101417.63
2019-02-23T02:05:19.369Z,101421.00
2019-02-23T02:07:50.267Z,101433.77
2019-02-23T02:10:22.982Z,101452.00
2019-02-23T02:12:53.804Z,101435.52
2019-02-23T02:15:24.431Z,101420.17
2019-02-23T02:17:58.355Z,101458.34
2019-02-23T02:20:29.051Z,101446.45
2019-02-23T02:23:00.655Z,101470.16
2019-02-23T02:25:32.678Z,101459.59
2019-02-23T02:28:04.183Z,101448.13
2019-02-23T02:30:34.739Z,101451.95
2019-02-23T02:33:07.668Z,101492.70
2019-02-23T02:35:38.696Z,101512.14
2019-02-23T02:38:11.309Z,101488.83
2019-02-23T02:40:42.557Z,101503.24
2019-02-23T02:43:14.345Z,101504.47
2019-02-23T02:45:46.379Z,101530.28
2019-02-23T02:48:17.024Z,101517.53
2019-02-23T02:50:50.095Z,101525.16
2019-02-23T02:53:22.690Z,101505.25
2019-02-23T02:55:53.455Z,101508.27
2019-02-23T02:58:24.408Z,101555.36
2019-02-23T03:00:55.376Z,101524.80
2019-02-23T03:03:26.453Z,101549.39
2019-02-23T03:05:57.142Z,101541.71
2019-02-23T03:08:27.671Z,101551.87
2019-02-23T03:10:58.434Z,101585.39
2019-02-23T03:13:30.531Z,101594.26
2019-02-23T03:16:01.418Z,101570.07
2019-02-23T03:18:32.513Z,101578.59
2019-02-23T03:21:04.885Z,101682.52
2019-02-23T03:23:35.672Z,101610.33
2019-02-23T03:26:06.316Z,101608.62
2019-02-23T03:28:37.222Z,101599.37
2019-02-23T03:31:07.921Z,101613.70
2019-02-23T03:33:38.696Z,101603.05
2019-02-23T03:36:10.505Z,101606.81
2019-02-23T03:38:41.267Z,101597.41
2019-02-23T03:41:11.874Z,101634.75
2019-02-23T03:43:42.627Z,101622.75
2019-02-23T03:46:13.736Z,101648.16
2019-02-23T03:48:44.929Z,101655.43
2019-02-23T03:51:17.679Z,101694.45
2019-02-23T03:53:48.296Z,101642.70
2019-02-23T03:56:19.399Z,101644.77
2019-02-23T03:58:51.266Z,101665.19
2019-02-23T04:01:21.940Z,101642.22
2019-02-23T04:03:52.666Z,101665.92
2019-02-23T04:06:24.666Z,101651.55
2019-02-23T04:08:55.345Z,101645.27
2019-02-23T04:11:27.807Z,101653.67
2019-02-23T04:13:59.968Z,101649.86
2019-02-23T04:16:30.745Z,101659.95
2019-02-23T04:19:01.264Z,101678.06
2019-02-23T04:21:32.101Z,101674.27
2019-02-23T04:24:04.209Z,101663.16
2019-02-23T04:26:35.055Z,101760.67
2019-02-23T04:29:05.969Z,101666.36
2019-02-23T04:31:36.808Z,101684.61
2019-02-23T04:34:08.447Z,101677.76
2019-02-23T04:36:40.576Z,101690.05
2019-02-23T04:39:11.684Z,101744.38
2019-02-23T04:41:43.560Z,101725.64
2019-02-23T04:44:14.631Z,101706.51
2019-02-23T04:46:46.274Z,101713.16
2019-02-23T04:49:16.923Z,101860.23
2019-02-23T04:51:47.492Z,101710.48
2019-02-23T04:54:18.155Z,101712.22
2019-02-23T04:56:50.526Z,101731.61
2019-02-23T04:59:21.526Z,101735.31
2019-02-23T05:01:52.246Z,101776.02
2019-02-23T05:04:22.845Z,101728.06
2019-02-23T05:06:55.525Z,101757.73
2019-02-23T05:09:26.966Z,101754.78
2019-02-23T05:11:57.936Z,101761.52
2019-02-23T05:14:28.719Z,101783.59
2019-02-23T05:16:59.710Z,101769.55
2019-02-23T05:19:33.723Z,101775.01
2019-02-23T05:22:04.226Z,101775.94
2019-02-23T05:24:34.979Z,101774.72
2019-02-23T05:27:05.984Z,101739.56
2019-02-23T05:29:36.466Z,101847.76
2019-02-23T05:32:07.296Z,101807.41
2019-02-23T05:34:38.867Z,101827.53
2019-02-23T05:37:11.328Z,101827.63
2019-02-23T05:39:42.065Z,101848.00
2019-02-23T05:42:13.222Z,101857.87
2019-02-23T05:44:44.742Z,101856.31
2019-02-23T05:47:15.403Z,101853.83
2019-02-23T05:49:47.234Z,101869.12
2019-02-23T05:52:21.022Z,101887.37
2019-02-23T05:54:51.929Z,101893.39
2019-02-23T05:57:22.533Z,101898.50
2019-02-23T05:59:54.443Z,101894.41
2019-02-23T06:02:25.303Z,101897.79
2019-02-23T06:04:55.922Z,101896.17
2019-02-23T06:07:26.619Z,101923.36
2019-02-23T06:09:57.871Z,101908.98
2019-02-23T06:12:28.520Z,101921.40
2019-02-23T06:14:59.226Z,101935.92
2019-02-23T06:17:30.285Z,101949.04
2019-02-23T06:20:01.358Z,101935.61
2019-02-23T06:22:32.144Z,101951.34
2019-02-23T06:25:03.466Z,101959.08
2019-02-23T06:27:34.025Z,101941.83
2019-02-23T06:30:06.413Z,101959.23
2019-02-23T06:32:38.279Z,101959.23
2019-02-23T06:35:10.247Z,101969.83
2019-02-23T06:37:40.839Z,101995.84
2019-02-23T06:40:12.220Z,101995.84
2019-02-23T06:42:42.840Z,101997.03
2019-02-23T06:45:13.138Z,101965.36
2019-02-23T06:47:44.210Z,101979.78
2019-02-23T06:50:15.015Z,102017.73
2019-02-23T06:52:45.594Z,102013.85
2019-02-23T06:55:17.002Z,102003.77
2019-02-23T06:57:49.177Z,102035.30
2019-02-23T07:00:19.887Z,102035.30
2019-02-23T07:02:50.636Z,102019.61
2019-02-23T07:05:25.298Z,102010.67
2019-02-23T07:07:55.882Z,102018.69
2019-02-23T07:10:26.620Z,102009.77
2019-02-23T07:12:57.407Z,102004.62
2019-02-23T07:15:28.218Z,102037.27
2019-02-23T07:17:59.192Z,102025.77
2019-02-23T07:20:29.774Z,102025.77
2019-02-23T07:23:01.965Z,102024.53
2019-02-23T07:25:33.109Z,102007.85
2019-02-23T07:28:04.530Z,102061.64
2019-02-23T07:30:36.250Z,102025.61
2019-02-23T07:33:09.088Z,102014.98
2019-02-23T07:35:41.125Z,102034.41
2019-02-23T07:38:12.135Z,102048.37
2019-02-23T07:40:42.880Z,102034.03
2019-02-23T07:43:15.000Z,102063.59
2019-02-23T07:45:45.823Z,102046.41
2019-02-23T07:48:18.166Z,102052.45
2019-02-23T07:50:48.808Z,102063.63
2019-02-23T07:53:21.831Z,102111.13
2019-02-23T07:55:53.083Z,102086.92
2019-02-23T07:58:23.698Z,102138.52
2019-02-23T08:00:55.623Z,102086.39
2019-02-23T08:03:26.378Z,102114.69
2019-02-23T08:05:57.260Z,102092.18
2019-02-23T08:08:28.222Z,102098.06
2019-02-23T08:11:03.440Z,102083.76
2019-02-23T08:13:35.271Z,102103.02
2019-02-23T08:16:05.812Z,102099.67
2019-02-23T08:18:37.233Z,102098.23
2019-02-23T08:21:07.879Z,102117.14
2019-02-23T08:23:38.632Z,102117.25
2019-02-23T08:26:09.601Z,102104.27
2019-02-23T08:28:41.125Z,102104.27
2019-02-23T08:31:13.400Z,102119.59
2019-02-23T08:33:44.495Z,102119.59
2019-02-23T08:36:15.505Z,102126.55
2019-02-23T08:38:46.047Z,102115.83
2019-02-23T08:41:16.678Z,102134.69
2019-02-23T08:43:47.353Z,102141.96
2019-02-23T08:46:18.100Z,102125.66
2019-02-23T08:48:49.737Z,102139.14
2019-02-23T08:51:20.649Z,102153.06
2019-02-23T08:53:54.042Z,102158.28
2019-02-23T08:56:25.775Z,102209.23
2019-02-23T08:58:57.476Z,102170.38
2019-02-23T09:01:28.989Z,102143.34
2019-02-23T09:04:00.783Z,102164.63
2019-02-23T09:06:33.150Z,102151.92
2019-02-23T09:09:03.865Z,102162.35
2019-02-23T09:11:34.975Z,102155.59
2019-02-23T09:14:05.616Z,102151.87
2019-02-23T09:16:36.164Z,102176.19
2019-02-23T09:19:07.387Z,102185.38
2019-02-23T09:21:38.880Z,102187.14
2019-02-23T09:24:09.749Z,102195.94
2019-02-23T09:26:42.180Z,102199.57
2019-02-23T09:29:14.827Z,102238.09
2019-02-23T09:31:45.886Z,102191.17
2019-02-23T09:34:16.711Z,102238.55
2019-02-23T09:36:47.591Z,102217.19
2019-02-23T09:39:18.602Z,102206.09
2019-02-23T09:41:49.528Z,102200.82
2019-02-23T09:44:20.138Z,102202.61
2019-02-23T09:46:51.014Z,102219.16
2019-02-23T09:49:22.118Z,102210.76
2019-02-23T09:51:53.599Z,102199.01
2019-02-23T09:54:24.325Z,102191.48
2019-02-23T09:56:54.958Z,102210.14
2019-02-23T09:59:28.067Z,102221.52
2019-02-23T10:01:59.044Z,102196.13
2019-02-23T10:04:30.877Z,102195.98
2019-02-23T10:07:01.941Z,102203.22
2019-02-23T10:09:34.397Z,102202.72
2019-02-23T10:12:05.179Z,102214.72
2019-02-23T10:14:35.979Z,102224.70
2019-02-23T10:17:09.218Z,102218.30
2019-02-23T10:19:39.639Z,102205.03
2019-02-23T10:22:11.092Z,102226.03
2019-02-23T10:24:41.922Z,102204.27
2019-02-23T10:27:13.633Z,102222.84
2019-02-23T10:29:43.940Z,102215.05
2019-02-23T10:32:14.202Z,102214.11
2019-02-23T10:34:44.746Z,102214.95
2019-02-23T10:37:22.616Z,102196.92
2019-02-23T10:39:53.400Z,102217.67
2019-02-23T10:42:23.805Z,102207.49
2019-02-23T10:44:54.536Z,102197.22
2019-02-23T10:47:25.783Z,102212.73
2019-02-23T10:49:56.380Z,102218.61
2019-02-23T10:52:26.795Z,102248.58
2019-02-23T10:54:57.236Z,102249.60
2019-02-23T10:57:27.910Z,102213.77
2019-02-23T10:59:58.113Z,102218.12
2019-02-23T11:02:28.680Z,102225.12
2019-02-23T11:04:59.089Z,102241.23
2019-02-23T11:07:29.354Z,102240.68
2019-02-23T11:09:59.847Z,102230.61
2019-02-23T11:12:30.250Z,102228.58
2019-02-23T11:15:00.649Z,102250.09
2019-02-23T11:17:31.489Z,102229.17
2019-02-23T11:20:02.366Z,102218.52
2019-02-23T11:22:33.403Z,102220.00
2019-02-23T11:25:05.326Z,102253.03
2019-02-23T11:27:36.220Z,102229.29
2019-02-23T11:30:07.592Z,102240.70
2019-02-23T11:32:39.651Z,102223.04
2019-02-23T11:35:10.771Z,102235.87
2019-02-23T11:37:41.550Z,102223.25
2019-02-23T11:42:53.258Z,102251.76
2019-02-23T11:45:25.292Z,102236.63
2019-02-23T11:47:55.995Z,102239.86
2019-02-23T11:50:26.795Z,102256.33
2019-02-23T11:52:57.573Z,102251.20
2019-02-23T11:55:28.230Z,102259.45
2019-02-23T11:57:59.458Z,102244.21
2019-02-23T12:00:30.946Z,102265.91
2019-02-23T12:03:02.793Z,102271.75
2019-02-23T12:05:34.468Z,102269.79
2019-02-23T12:08:05.059Z,102266.38
2019-02-23T12:10:35.690Z,102261.74
2019-02-23T12:13:07.482Z,102259.72
2019-02-23T12:15:38.229Z,102309.80
2019-02-23T12:18:08.990Z,102278.63
2019-02-23T12:20:39.738Z,102278.66
2019-02-23T12:23:10.779Z,102275.92
2019-02-23T12:25:41.421Z,102272.33
2019-02-23T12:28:11.982Z,102295.53
2019-02-23T12:30:42.888Z,102282.10
2019-02-23T12:33:16.068Z,102275.25
2019-02-23T12:35:46.594Z,102287.71
2019-02-23T12:38:17.439Z,102277.80
2019-02-23T12:40:48.053Z,102295.27
2019-02-23T12:43:18.717Z,102278.31
2019-02-23T12:45:49.401Z,102282.17
2019-02-23T12:48:20.359Z,102290.84
2019-02-23T12:50:51.622Z,102306.08
2019-02-23T12:53:22.277Z,102318.25
2019-02-23T12:55:52.944Z,102319.73
2019-02-23T12:58:24.806Z,102320.34
2019-02-23T13:00:55.612Z,102321.03
2019-02-23T13:03:26.474Z,102324.61
2019-02-23T13:05:58.828Z,102316.66
2019-02-23T13:08:56.451Z,102320.63
2019-02-23T13:11:27.573Z,102332.53
2019-02-23T13:14:30.884Z,102327.86
2019-02-23T13:17:24.031Z,102337.95
2019-02-23T13:20:30.730Z,102346.09
2019-02-23T13:23:28.189Z,102344.96
2019-02-23T13:26:17.082Z,102336.78
2019-02-23T13:29:40.527Z,102342.06
2019-02-23T13:32:22.749Z,102350.00
2019-02-23T13:35:24.341Z,102350.88
2019-02-23T13:38:31.200Z,102345.91
2019-02-23T13:41:29.990Z,102353.20
2019-02-23T13:45:02.131Z,102350.59
2019-02-23T13:48:28.111Z,102363.27
2019-02-23T13:51:42.833Z,102350.91
2019-02-23T13:54:41.414Z,102359.91
2019-02-23T13:57:48.942Z,102354.45
2019-02-23T14:01:03.074Z,102351.16
2019-02-23T14:04:13.336Z,102349.20
2019-02-23T14:07:12.920Z,102357.17
2019-02-23T14:10:18.878Z,102356.52
2019-02-23T14:13:21.803Z,102363.14
2019-02-23T14:16:32.023Z,102351.39
2019-02-23T14:20:10.376Z,102377.16
2019-02-23T14:23:16.243Z,102371.33
2019-02-23T14:26:39.314Z,102369.61
2019-02-23T14:29:31.347Z,102389.96
2019-02-23T14:32:40.832Z,102369.97
2019-02-23T14:35:45.224Z,102390.43
2019-02-23T14:38:37.526Z,102389.96
2019-02-23T14:41:19.991Z,102378.76
2019-02-23T14:44:35.262Z,102381.25
2019-02-23T14:47:15.030Z,102368.51
2019-02-23T14:50:03.602Z,102396.55
2019-02-23T14:53:26.616Z,102400.76
2019-02-23T14:56:36.801Z,102400.91
2019-02-23T14:59:28.172Z,102407.92
2019-02-23T15:02:31.924Z,102407.39
2019-02-23T15:05:12.308Z,102419.36
2019-02-23T15:08:14.347Z,102418.33
2019-02-23T15:11:37.306Z,102411.23
2019-02-23T15:15:09.875Z,102415.77
2019-02-23T15:18:24.234Z,102423.50
2019-02-23T15:21:10.274Z,102429.66
2019-02-23T15:24:14.746Z,102424.78
2019-02-23T15:27:16.681Z,102425.55
2019-02-23T15:30:13.765Z,102428.11
2019-02-23T15:33:43.181Z,102445.95
2019-02-23T15:36:32.096Z,102440.78
2019-02-23T15:39:28.895Z,102441.92
2019-02-23T15:42:41.936Z,102445.76
2019-02-23T15:45:53.734Z,102446.13
2019-02-23T15:49:04.661Z,102453.35
2019-02-23T15:51:36.570Z,102458.77
2019-02-23T15:54:07.784Z,102453.69
2019-02-23T15:56:38.644Z,102467.66
2019-02-23T15:59:09.388Z,102468.13
2019-02-23T16:01:40.036Z,102464.74
2019-02-23T16:04:11.198Z,102468.10
2019-02-23T16:06:42.931Z,102480.89
2019-02-23T16:09:13.728Z,102478.72
2019-02-23T16:11:45.379Z,102476.50
2019-02-23T16:14:16.638Z,102493.05
2019-02-23T16:16:47.734Z,102488.79
2019-02-23T16:19:18.394Z,102490.06
2019-02-23T16:21:52.723Z,102497.86
2019-02-23T16:24:22.020Z,102491.84
2019-02-23T16:26:53.159Z,102505.15
2019-02-23T16:29:24.036Z,102498.77
2019-02-23T16:31:54.714Z,102502.16
2019-02-23T16:34:27.402Z,102504.27
2019-02-23T16:36:58.511Z,102506.36
2019-02-23T16:39:29.188Z,102512.67
2019-02-23T16:42:00.045Z,102512.67
2019-02-23T16:44:31.681Z,102518.66
2019-02-23T16:47:02.331Z,102517.91
2019-02-23T16:49:34.136Z,102518.28
2019-02-23T16:52:04.801Z,102523.97
2019-02-23T16:54:35.473Z,102520.17
2019-02-23T16:57:06.005Z,102529.06
2019-02-23T16:59:36.695Z,102536.74
2019-02-23T17:02:07.391Z,102533.09
2019-02-23T17:04:39.031Z,102532.66
2019-02-23T17:07:10.880Z,102534.91
2019-02-23T17:09:41.433Z,102539.33
2019-02-23T17:12:11.969Z,102543.63
2019-02-23T17:14:43.010Z,102544.44
2019-02-23T17:17:14.567Z,102539.47
2019-02-23T17:19:45.217Z,102538.56
2019-02-23T17:22:16.519Z,102545.34
2019-02-23T17:24:47.413Z,102554.03
2019-02-23T17:27:18.339Z,102536.74
2019-02-23T17:29:49.369Z,102534.02
2019-02-23T17:32:20.127Z,102535.43
2019-02-23T17:34:50.831Z,102547.68
2019-02-23T17:37:22.113Z,102539.05
2019-02-23T17:39:52.708Z,102550.02
2019-02-23T17:42:28.081Z,102546.38
2019-02-23T17:44:56.354Z,102550.02
2019-02-23T17:47:27.373Z,102545.42
2019-02-23T17:49:58.669Z,102548.37
2019-02-23T17:52:30.290Z,102557.23
2019-02-23T17:55:04.434Z,102549.98
2019-02-23T17:57:35.035Z,102555.08
2019-02-23T18:00:05.987Z,102548.30
2019-02-23T18:02:37.828Z,102553.41
2019-02-23T18:05:09.935Z,102559.02
2019-02-23T18:07:41.604Z,102559.90
2019-02-23T18:10:12.191Z,102553.44
2019-02-23T18:12:44.497Z,102557.85
2019-02-23T18:15:15.258Z,102550.70
2019-02-23T18:17:46.281Z,102555.20
2019-02-23T18:20:16.957Z,102553.92
2019-02-23T18:22:48.774Z,102545.94
2019-02-23T18:25:20.729Z,102510.76
2019-02-23T18:27:51.835Z,102545.27
2019-02-23T18:30:22.562Z,102540.64
2019-02-23T18:32:53.600Z,102545.06
2019-02-23T18:35:24.099Z,102552.34
2019-02-23T18:37:54.809Z,102545.67
2019-02-23T18:40:25.678Z,102536.82
2019-02-23T18:42:56.301Z,102545.83
2019-02-23T18:45:27.469Z,102548.56
2019-02-23T18:47:58.124Z,102545.57
2019-02-23T18:50:28.881Z,102550.78
2019-02-23T18:52:59.731Z,102551.91
2019-02-23T18:55:30.614Z,102561.21
2019-02-23T18:58:01.424Z,102552.50
2019-02-23T19:00:32.422Z,102550.31
2019-02-23T19:03:03.437Z,102558.51
2019-02-23T19:05:33.755Z,102556.40
2019-02-23T19:08:04.407Z,102558.84
2019-02-23T19:10:35.113Z,102575.78
2019-02-23T19:13:08.454Z,102564.73
2019-02-23T19:15:40.806Z,102569.33
2019-02-23T19:18:11.475Z,102574.40
2019-02-23T19:20:42.422Z,102574.69
2019-02-23T19:23:13.176Z,102566.59
2019-02-23T19:25:44.020Z,102576.36
2019-02-23T19:28:15.813Z,102571.69
2019-02-23T19:30:46.629Z,102567.36
2019-02-23T19:33:17.237Z,102567.31
2019-02-23T19:35:48.163Z,102562.86
2019-02-23T19:38:20.032Z,102565.45
2019-02-23T19:40:51.000Z,102569.71
2019-02-23T19:43:21.432Z,102564.65
2019-02-23T19:45:52.176Z,102585.69
2019-02-23T19:48:22.904Z,102573.82
2019-02-23T19:50:56.995Z,102579.72
2019-02-23T19:53:27.741Z,102579.88
2019-02-23T19:55:58.360Z,102578.56
2019-02-23T19:58:29.984Z,102580.13
2019-02-23T20:01:00.655Z,102581.63
2019-02-23T20:03:31.851Z,102581.63
2019-02-23T20:06:02.480Z,102585.06
2019-02-23T20:08:33.107Z,102583.06
2019-02-23T20:11:03.586Z,102583.06
2019-02-23T20:13:34.771Z,102577.67
2019-02-23T20:16:05.357Z,102578.20
2019-02-23T20:18:36.004Z,102578.20
2019-02-23T20:21:06.909Z,102584.61
2019-02-23T20:23:38.658Z,102579.16
2019-02-23T20:26:10.087Z,102583.30
2019-02-23T20:28:41.423Z,102583.30
2019-02-23T20:31:12.155Z,102579.34
2019-02-23T20:33:42.881Z,102581.29
2019-02-23T20:36:13.658Z,102580.53
2019-02-23T20:38:44.575Z,102589.16
2019-02-23T20:41:15.493Z,102589.16
2019-02-23T20:43:47.480Z,102576.33
2019-02-23T20:46:18.161Z,102579.72
2019-02-23T20:48:49.991Z,102579.80
2019-02-23T20:51:20.856Z,102568.77
2019-02-23T20:53:51.537Z,102574.50
2019-02-23T20:56:22.355Z,102578.80
2019-02-23T20:58:53.546Z,102579.91
2019-02-23T21:01:24.134Z,102579.42
2019-02-23T21:03:54.932Z,102578.70
2019-02-23T21:06:25.568Z,102583.73
2019-02-23T21:08:57.766Z,102590.88
2019-02-23T21:11:28.470Z,102583.69
2019-02-23T21:13:59.307Z,102593.47
2019-02-23T21:16:29.919Z,102593.83
2019-02-23T21:19:01.280Z,102593.78
2019-02-23T21:21:33.528Z,102581.18
2019-02-23T21:24:04.216Z,102579.59
2019-02-23T21:26:34.958Z,102572.78
2019-02-23T21:29:05.801Z,102578.28
2019-02-23T21:31:36.559Z,102577.79
2019-02-23T21:34:08.597Z,102568.13
2019-02-23T21:36:39.216Z,102564.18
2019-02-23T21:39:10.738Z,102560.23
2019-02-23T21:41:41.851Z,102563.57
2019-02-23T21:44:12.528Z,102558.55
2019-02-23T21:46:43.212Z,102556.01
2019-02-23T21:49:13.970Z,102564.97
2019-02-23T21:51:45.675Z,102566.05
2019-02-23T21:54:18.178Z,102562.05
2019-02-23T21:56:49.022Z,102571.20
2019-02-23T21:59:20.735Z,102570.98
2019-02-23T22:01:51.649Z,102561.98
2019-02-23T22:04:22.652Z,102566.77
2019-02-23T22:06:54.565Z,102561.86
2019-02-23T22:09:25.160Z,102569.63
2019-02-23T22:11:55.860Z,102569.63
2019-02-23T22:14:26.852Z,102572.56
2019-02-23T22:16:57.579Z,102572.56
2019-02-23T22:19:27.998Z,102576.78
2019-02-23T22:21:58.986Z,102574.33
2019-02-23T22:24:30.892Z,102581.88
2019-02-23T22:27:01.548Z,102577.79
2019-02-23T22:29:33.499Z,102580.96
2019-02-23T22:32:04.356Z,102583.11
2019-02-23T22:34:34.897Z,102576.31
2019-02-23T22:37:07.317Z,102574.06
2019-02-23T22:39:37.977Z,102565.63
2019-02-23T22:42:09.694Z,102573.05
2019-02-23T22:44:40.533Z,102572.93
2019-02-23T22:47:12.431Z,102567.04
2019-02-23T22:49:43.182Z,102564.45
2019-02-23T22:52:14.066Z,102570.34
2019-02-23T22:54:44.868Z,102564.36
2019-02-23T22:57:15.826Z,102564.76
2019-02-23T22:59:47.463Z,102566.78
2019-02-23T23:02:19.020Z,102565.89
2019-02-23T23:04:49.936Z,102568.48
2019-02-23T23:07:21.701Z,102565.55
2019-02-23T23:09:52.519Z,102577.35
2019-02-23T23:12:23.732Z,102572.27
2019-02-23T23:14:54.485Z,102571.16
2019-02-23T23:17:25.259Z,102581.08
2019-02-23T23:19:57.090Z,102576.65
2019-02-23T23:22:27.886Z,102579.67
2019-02-23T23:24:59.655Z,102578.61
2019-02-23T23:27:30.263Z,102576.30
2019-02-23T23:30:01.334Z,102583.09
2019-02-23T23:32:33.855Z,102578.61
2019-02-23T23:35:05.549Z,102582.83
2019-02-23T23:37:37.501Z,102579.27
2019-02-23T23:40:08.365Z,102577.29
2019-02-23T23:42:39.413Z,102581.85
2019-02-23T23:45:10.243Z,102578.39
2019-02-23T23:47:40.925Z,102570.35
2019-02-23T23:50:13.953Z,102574.47
2019-02-23T23:52:45.018Z,102569.81
2019-02-23T23:55:15.792Z,102562.27
2019-02-23T23:57:46.934Z,102569.38
